Terminal Aerodrome Forecast
Issued by NWS Tampa Bay Area, FL

Home | Current Version | Previous Version | Text Only | Print | Product List | Glossary On
Versions: 1 2 3 4 5 6 7 8 9 10 11 12 13 14 15 16 17 18 19 20 21 22 23 24 25 26 27 28 29
000
FTUS42 KTBW 312105 AAA
TAFTPA
TAF AMD
KTPA 312105Z 3121/0118 22010KT P6SM VCSH SCT030 SCT070 BKN120
      TEMPO 3121/3122 VRB15G25KT 4SM SHRA BKN030
     FM010000 21008KT P6SM VCSH SCT025 BKN100 BKN200
     FM011400 21012KT P6SM VCTS SCT030CB BKN250=

USA.gov is the U.S. government's official web portal to all federal, state and local government web resources and services.